Scarborough, Canada
Current Conditions -  °F | °C
As of 12:00 AM on Tuesday 23 Dec 2014 (Local Time) from CYKZ Reporting Station
Overcast Overcast  
Wind Chill: 26°   Ceiling: 12000
Heat Index: 32°   Visibility: 7mi
Dew Point: 28°   Wind: 7mph
Humidity: 87%   Direction: 90°E
Pressure: 30.04"   Gusts: NA
Location:  43.77°N, 79.26°W
Report Text: CYKZ 230500Z 09006KT 7SM FEW007 OVC120 M00/M02 A3004 RMK SC1AS7SLP181
Loading
Personal Weather Stations






























Interactive Weather Map New forecast layout! Learn more

10-Day Weather Forecast

Advertisements
Track Severe Weather on mobile